sensor_id;sensor_type;location;lat;lon;timestamp;pressure;altitude;pressure_sealevel;temperature;humidity
9893;BME280;4985;49.092;8.542;2023-02-28T00:00:34;100131.91;;;12.28;53.45
9893;BME280;4985;49.092;8.542;2023-02-28T00:03:01;100139.00;;;12.27;53.47
9893;BME280;4985;49.092;8.542;2023-02-28T00:05:28;100135.37;;;12.28;53.45
9893;BME280;4985;49.092;8.542;2023-02-28T00:07:55;100134.53;;;12.28;53.45
9893;BME280;4985;49.092;8.542;2023-02-28T00:10:24;100136.34;;;12.27;53.44
9893;BME280;4985;49.092;8.542;2023-02-28T00:12:52;100132.88;;;12.27;53.45
9893;BME280;4985;49.092;8.542;2023-02-28T00:15:22;100130.25;;;12.27;53.45
9893;BME280;4985;49.092;8.542;2023-02-28T00:17:50;100130.25;;;12.27;53.47
9893;BME280;4985;49.092;8.542;2023-02-28T00:20:17;100123.31;;;12.26;53.46
9893;BME280;4985;49.092;8.542;2023-02-28T00:22:46;100128.59;;;12.26;53.47
9893;BME280;4985;49.092;8.542;2023-02-28T00:25:15;100126.78;;;12.26;53.46
9893;BME280;4985;49.092;8.542;2023-02-28T00:27:42;100125.97;;;12.26;53.47
9893;BME280;4985;49.092;8.542;2023-02-28T00:30:11;100124.13;;;12.26;53.44
9893;BME280;4985;49.092;8.542;2023-02-28T00:32:38;100123.31;;;12.26;53.45
9893;BME280;4985;49.092;8.542;2023-02-28T00:35:07;100121.66;;;12.24;53.46
9893;BME280;4985;49.092;8.542;2023-02-28T00:37:34;100124.31;;;12.24;53.47
9893;BME280;4985;49.092;8.542;2023-02-28T00:40:01;100124.44;;;12.23;53.46
9893;BME280;4985;49.092;8.542;2023-02-28T00:42:31;100125.28;;;12.23;53.46
9893;BME280;4985;49.092;8.542;2023-02-28T00:44:57;100125.28;;;12.23;53.47
9893;BME280;4985;49.092;8.542;2023-02-28T00:47:25;100120.84;;;12.24;53.46
9893;BME280;4985;49.092;8.542;2023-02-28T00:49:51;100123.47;;;12.24;53.46
9893;BME280;4985;49.092;8.542;2023-02-28T00:52:19;100128.87;;;12.22;53.47
9893;BME280;4985;49.092;8.542;2023-02-28T00:54:46;100128.87;;;12.22;53.47
9893;BME280;4985;49.092;8.542;2023-02-28T00:57:13;100118.31;;;12.22;53.45
9893;BME280;4985;49.092;8.542;2023-02-28T00:59:39;100118.31;;;12.22;53.46
9893;BME280;4985;49.092;8.542;2023-02-28T01:02:06;100119.31;;;12.21;53.46
9893;BME280;4985;49.092;8.542;2023-02-28T01:04:33;100111.37;;;12.21;53.47
9893;BME280;4985;49.092;8.542;2023-02-28T01:06:59;100121.94;;;12.21;53.47
9893;BME280;4985;49.092;8.542;2023-02-28T01:09:27;100121.94;;;12.21;53.45
9893;BME280;4985;49.092;8.542;2023-02-28T01:11:54;100120.28;;;12.20;53.46
9893;BME280;4985;49.092;8.542;2023-02-28T01:14:20;100121.13;;;12.21;53.46
9893;BME280;4985;49.092;8.542;2023-02-28T01:16:47;100126.56;;;12.19;53.47
9893;BME280;4985;49.092;8.542;2023-02-28T01:19:14;100123.91;;;12.19;53.47
9893;BME280;4985;49.092;8.542;2023-02-28T01:21:40;100125.56;;;12.20;53.47
9893;BME280;4985;49.092;8.542;2023-02-28T01:24:07;100118.63;;;12.19;53.45
9893;BME280;4985;49.092;8.542;2023-02-28T01:26:35;100115.84;;;12.21;53.43
9893;BME280;4985;49.092;8.542;2023-02-28T01:29:02;100127.22;;;12.21;53.41
9893;BME280;4985;49.092;8.542;2023-02-28T01:31:28;100119.31;;;12.21;53.42
9893;BME280;4985;49.092;8.542;2023-02-28T01:33:55;100119.47;;;12.20;53.42
9893;BME280;4985;49.092;8.542;2023-02-28T01:36:23;100116.97;;;12.18;53.42
9893;BME280;4985;49.092;8.542;2023-02-28T01:38:50;100117.28;;;12.15;53.43
9893;BME280;4985;49.092;8.542;2023-02-28T01:41:19;100116.00;;;12.19;53.43
9893;BME280;4985;49.092;8.542;2023-02-28T01:43:59;100118.63;;;12.19;53.43
9893;BME280;4985;49.092;8.542;2023-02-28T01:46:29;100113.34;;;12.19;53.43
9893;BME280;4985;49.092;8.542;2023-02-28T01:49:00;100121.28;;;12.19;53.42
9893;BME280;4985;49.092;8.542;2023-02-28T01:51:31;100122.25;;;12.18;53.42
9893;BME280;4985;49.092;8.542;2023-02-28T01:54:02;100108.37;;;12.16;53.44
9893;BME280;4985;49.092;8.542;2023-02-28T01:56:33;100105.75;;;12.16;53.45
9893;BME280;4985;49.092;8.542;2023-02-28T01:59:03;100098.16;;;12.13;53.43
9893;BME280;4985;49.092;8.542;2023-02-28T02:01:30;100115.47;;;12.16;53.44
9893;BME280;4985;49.092;8.542;2023-02-28T02:03:59;100103.09;;;12.16;53.44
9893;BME280;4985;49.092;8.542;2023-02-28T02:06:29;100107.56;;;12.16;53.45
9893;BME280;4985;49.092;8.542;2023-02-28T02:08:56;100101.47;;;12.15;53.44
9893;BME280;4985;49.092;8.542;2023-02-28T02:11:25;100101.47;;;12.15;53.43
9893;BME280;4985;49.092;8.542;2023-02-28T02:14:27;100105.91;;;12.15;53.43
9893;BME280;4985;49.092;8.542;2023-02-28T02:17:08;100100.63;;;12.15;53.43
9893;BME280;4985;49.092;8.542;2023-02-28T02:26:10;100091.87;;;12.14;53.41
9893;BME280;4985;49.092;8.542;2023-02-28T02:28:58;100093.69;;;12.14;53.42
9893;BME280;4985;49.092;8.542;2023-02-28T02:31:46;100092.03;;;12.13;53.43
9893;BME280;4985;49.092;8.542;2023-02-28T02:34:26;100088.56;;;12.12;53.43
9893;BME280;4985;49.092;8.542;2023-02-28T02:37:03;100085.94;;;12.12;53.42
9893;BME280;4985;49.092;8.542;2023-02-28T02:39:42;100086.06;;;12.11;53.45
9893;BME280;4985;49.092;8.542;2023-02-28T02:42:14;100088.19;;;12.07;53.45
9893;BME280;4985;49.092;8.542;2023-02-28T02:44:47;100093.16;;;12.10;53.44
9893;BME280;4985;49.092;8.542;2023-02-28T02:47:17;100087.87;;;12.10;53.45
9893;BME280;4985;49.092;8.542;2023-02-28T02:49:49;100090.50;;;12.10;53.45
9893;BME280;4985;49.092;8.542;2023-02-28T02:52:20;100095.78;;;12.10;53.44
9893;BME280;4985;49.092;8.542;2023-02-28T02:54:49;100089.69;;;12.10;53.43
9893;BME280;4985;49.092;8.542;2023-02-28T02:57:22;100091.50;;;12.09;53.43
9893;BME280;4985;49.092;8.542;2023-02-28T02:59:50;100093.31;;;12.09;53.44
9893;BME280;4985;49.092;8.542;2023-02-28T03:02:20;100091.50;;;12.09;53.43
9893;BME280;4985;49.092;8.542;2023-02-28T03:04:51;100082.25;;;12.05;53.41
9893;BME280;4985;49.092;8.542;2023-02-28T03:07:19;100089.00;;;12.08;53.42
9893;BME280;4985;49.092;8.542;2023-02-28T03:09:50;100097.75;;;12.08;53.41
9893;BME280;4985;49.092;8.542;2023-02-28T03:12:18;100095.13;;;12.08;53.42
9893;BME280;4985;49.092;8.542;2023-02-28T03:14:59;100098.75;;;12.07;53.42
9893;BME280;4985;49.092;8.542;2023-02-28T03:17:56;100091.66;;;12.08;53.42
9893;BME280;4985;49.092;8.542;2023-02-28T03:20:35;100087.34;;;12.07;53.42
9893;BME280;4985;49.092;8.542;2023-02-28T03:23:13;100088.19;;;12.07;53.42
9893;BME280;4985;49.092;8.542;2023-02-28T03:25:52;100093.47;;;12.07;53.42
9893;BME280;4985;49.092;8.542;2023-02-28T03:28:28;100091.81;;;12.06;53.40
9893;BME280;4985;49.092;8.542;2023-02-28T03:30:59;100089.16;;;12.06;53.42
9893;BME280;4985;49.092;8.542;2023-02-28T03:33:31;100092.63;;;12.07;53.41
9893;BME280;4985;49.092;8.542;2023-02-28T03:36:05;100092.63;;;12.07;53.39
9893;BME280;4985;49.092;8.542;2023-02-28T03:38:37;100090.16;;;12.05;53.39
9893;BME280;4985;49.092;8.542;2023-02-28T03:41:10;100089.34;;;12.05;53.40
9893;BME280;4985;49.092;8.542;2023-02-28T03:43:41;100089.34;;;12.05;53.41
9893;BME280;4985;49.092;8.542;2023-02-28T03:46:12;100077.13;;;12.04;53.42
9893;BME280;4985;49.092;8.542;2023-02-28T03:48:44;100083.22;;;12.04;53.42
9893;BME280;4985;49.092;8.542;2023-02-28T03:51:16;100089.34;;;12.05;53.41
9893;BME280;4985;49.092;8.542;2023-02-28T03:53:45;100085.88;;;12.04;53.41
9893;BME280;4985;49.092;8.542;2023-02-28T03:56:17;100084.50;;;12.00;53.41
9893;BME280;4985;49.092;8.542;2023-02-28T03:58:48;100086.03;;;12.03;53.42
9893;BME280;4985;49.092;8.542;2023-02-28T04:01:21;100079.91;;;12.02;53.42
9893;BME280;4985;49.092;8.542;2023-02-28T04:03:49;100087.66;;;12.04;53.39
9893;BME280;4985;49.092;8.542;2023-02-28T04:06:20;100086.84;;;12.03;53.39
9893;BME280;4985;49.092;8.542;2023-02-28T04:08:47;100090.47;;;12.02;53.40
9893;BME280;4985;49.092;8.542;2023-02-28T04:11:20;100087.84;;;12.02;53.40
9893;BME280;4985;49.092;8.542;2023-02-28T04:13:47;100090.47;;;12.02;53.41
9893;BME280;4985;49.092;8.542;2023-02-28T04:16:14;100092.41;;;12.00;53.41
9893;BME280;4985;49.092;8.542;2023-02-28T04:18:41;100089.94;;;11.99;53.41
9893;BME280;4985;49.092;8.542;2023-02-28T04:21:09;100090.63;;;12.01;53.41
9893;BME280;4985;49.092;8.542;2023-02-28T04:23:38;100087.13;;;12.00;53.41
9893;BME280;4985;49.092;8.542;2023-02-28T04:26:05;100085.47;;;11.99;53.42
9893;BME280;4985;49.092;8.542;2023-02-28T04:28:32;100087.13;;;12.00;53.42
9893;BME280;4985;49.092;8.542;2023-02-28T04:31:00;100087.13;;;12.00;53.41
9893;BME280;4985;49.092;8.542;2023-02-28T04:33:27;100078.38;;;12.00;53.39
9893;BME280;4985;49.092;8.542;2023-02-28T04:36:00;100081.84;;;12.00;53.41
9893;BME280;4985;49.092;8.542;2023-02-28T04:38:28;100086.19;;;12.01;53.40
9893;BME280;4985;49.092;8.542;2023-02-28T04:40:58;100081.84;;;12.00;53.39
9893;BME280;4985;49.092;8.542;2023-02-28T04:43:25;100075.38;;;11.94;53.38
9893;BME280;4985;49.092;8.542;2023-02-28T04:45:52;100078.53;;;11.98;53.40
9893;BME280;4985;49.092;8.542;2023-02-28T04:48:19;100083.00;;;11.98;53.40
9893;BME280;4985;49.092;8.542;2023-02-28T04:50:46;100082.16;;;11.97;53.41
9893;BME280;4985;49.092;8.542;2023-02-28T04:53:13;100095.38;;;11.97;53.41
9893;BME280;4985;49.092;8.542;2023-02-28T04:55:39;100086.62;;;11.97;53.40
9893;BME280;4985;49.092;8.542;2023-02-28T04:58:07;100086.62;;;11.97;53.40
9893;BME280;4985;49.092;8.542;2023-02-28T05:00:34;100085.78;;;11.96;53.40
9893;BME280;4985;49.092;8.542;2023-02-28T05:03:00;100085.78;;;11.96;53.39
9893;BME280;4985;49.092;8.542;2023-02-28T05:05:27;100096.34;;;11.96;53.41
9893;BME280;4985;49.092;8.542;2023-02-28T05:07:54;100096.34;;;11.96;53.38
9893;BME280;4985;49.092;8.542;2023-02-28T05:10:21;100099.81;;;11.97;53.39
9893;BME280;4985;49.092;8.542;2023-02-28T05:12:47;100101.63;;;11.96;53.39
9893;BME280;4985;49.092;8.542;2023-02-28T05:15:16;100099.13;;;11.94;53.39
9893;BME280;4985;49.092;8.542;2023-02-28T05:17:43;100099.13;;;11.94;53.40
9893;BME280;4985;49.092;8.542;2023-02-28T05:20:11;100100.78;;;11.95;53.37
9893;BME280;4985;49.092;8.542;2023-02-28T05:22:38;100100.28;;;11.92;53.39
9893;BME280;4985;49.092;8.542;2023-02-28T05:25:06;100100.94;;;11.94;53.38
9893;BME280;4985;49.092;8.542;2023-02-28T05:27:33;100103.59;;;11.94;53.38
9893;BME280;4985;49.092;8.542;2023-02-28T05:29:59;100106.22;;;11.94;53.40
9893;BME280;4985;49.092;8.542;2023-02-28T05:32:30;100104.56;;;11.93;53.40
9893;BME280;4985;49.092;8.542;2023-02-28T05:34:56;100105.56;;;11.92;53.42
9893;BME280;4985;49.092;8.542;2023-02-28T05:37:23;100105.56;;;11.92;53.41
9893;BME280;4985;49.092;8.542;2023-02-28T05:39:49;100108.19;;;11.92;53.40
9893;BME280;4985;49.092;8.542;2023-02-28T05:42:16;100107.22;;;11.93;53.38
9893;BME280;4985;49.092;8.542;2023-02-28T05:44:42;100094.75;;;11.85;53.38
9893;BME280;4985;49.092;8.542;2023-02-28T05:47:09;100108.19;;;11.92;53.38
9893;BME280;4985;49.092;8.542;2023-02-28T05:49:37;100108.19;;;11.92;53.38
9893;BME280;4985;49.092;8.542;2023-02-28T05:52:04;100108.34;;;11.90;53.39
9893;BME280;4985;49.092;8.542;2023-02-28T05:54:30;100107.38;;;11.91;53.39
9893;BME280;4985;49.092;8.542;2023-02-28T05:56:57;100108.34;;;11.90;53.39
9893;BME280;4985;49.092;8.542;2023-02-28T05:59:23;100107.53;;;11.90;53.38
9893;BME280;4985;49.092;8.542;2023-02-28T06:01:50;100111.81;;;11.91;53.38
9893;BME280;4985;49.092;8.542;2023-02-28T06:04:19;100107.53;;;11.90;53.38
9893;BME280;4985;49.092;8.542;2023-02-28T06:06:48;100096.97;;;11.90;53.38
9893;BME280;4985;49.092;8.542;2023-02-28T06:09:15;100106.69;;;11.89;53.38
9893;BME280;4985;49.092;8.542;2023-02-28T06:11:42;100101.53;;;11.88;53.37
9893;BME280;4985;49.092;8.542;2023-02-28T06:14:13;100105.84;;;11.89;53.36
9893;BME280;4985;49.092;8.542;2023-02-28T06:16:40;100111.13;;;11.89;53.34
9893;BME280;4985;49.092;8.542;2023-02-28T06:19:08;100106.69;;;11.89;53.36
9893;BME280;4985;49.092;8.542;2023-02-28T06:21:35;100117.38;;;11.88;53.37
9893;BME280;4985;49.092;8.542;2023-02-28T06:24:04;100110.28;;;11.88;53.38
9893;BME280;4985;49.092;8.542;2023-02-28T06:26:30;100103.50;;;11.86;53.38
9893;BME280;4985;49.092;8.542;2023-02-28T06:28:57;100106.97;;;11.86;53.38
9893;BME280;4985;49.092;8.542;2023-02-28T06:31:24;100111.25;;;11.87;53.37
9893;BME280;4985;49.092;8.542;2023-02-28T06:33:52;100116.69;;;11.86;53.37
9893;BME280;4985;49.092;8.542;2023-02-28T06:36:18;100120.16;;;11.86;53.38
9893;BME280;4985;49.092;8.542;2023-02-28T06:38:45;100132.37;;;11.87;53.36
9893;BME280;4985;49.092;8.542;2023-02-28T06:41:17;100132.53;;;11.86;53.35
9893;BME280;4985;49.092;8.542;2023-02-28T06:43:44;100128.22;;;11.85;53.38
9893;BME280;4985;49.092;8.542;2023-02-28T06:46:12;100136.16;;;11.85;53.38
9893;BME280;4985;49.092;8.542;2023-02-28T06:48:39;100129.53;;;11.81;53.38
9893;BME280;4985;49.092;8.542;2023-02-28T06:51:08;100138.13;;;11.83;53.42
9893;BME280;4985;49.092;8.542;2023-02-28T06:53:35;100150.31;;;11.84;53.42
9893;BME280;4985;49.092;8.542;2023-02-28T06:56:03;100160.06;;;11.83;53.43
9893;BME280;4985;49.092;8.542;2023-02-28T06:58:33;100158.25;;;11.84;53.42
9893;BME280;4985;49.092;8.542;2023-02-28T07:01:00;100154.94;;;11.82;53.41
9893;BME280;4985;49.092;8.542;2023-02-28T07:03:27;100156.75;;;11.81;53.44
9893;BME280;4985;49.092;8.542;2023-02-28T07:05:54;100153.28;;;11.81;53.46
9893;BME280;4985;49.092;8.542;2023-02-28T07:08:21;100153.28;;;11.81;53.44
9893;BME280;4985;49.092;8.542;2023-02-28T07:10:51;100154.25;;;11.80;53.47
9893;BME280;4985;49.092;8.542;2023-02-28T07:13:18;100156.88;;;11.80;53.47
9893;BME280;4985;49.092;8.542;2023-02-28T07:15:53;100160.34;;;11.80;53.47
9893;BME280;4985;49.092;8.542;2023-02-28T07:18:19;100161.19;;;11.81;53.46
9893;BME280;4985;49.092;8.542;2023-02-28T07:20:46;100163.97;;;11.79;53.44
9893;BME280;4985;49.092;8.542;2023-02-28T07:23:12;100163.00;;;11.80;53.44
9893;BME280;4985;49.092;8.542;2023-02-28T07:25:39;100177.00;;;11.81;53.43
9893;BME280;4985;49.092;8.542;2023-02-28T07:28:05;100172.56;;;11.81;53.42
9893;BME280;4985;49.092;8.542;2023-02-28T07:30:32;100172.56;;;11.81;53.43
9893;BME280;4985;49.092;8.542;2023-02-28T07:33:00;100178.66;;;11.82;53.41
9893;BME280;4985;49.092;8.542;2023-02-28T07:35:26;100181.47;;;11.80;53.41
9893;BME280;4985;49.092;8.542;2023-02-28T07:37:53;100180.31;;;11.83;53.39
9893;BME280;4985;49.092;8.542;2023-02-28T07:40:19;100181.31;;;11.82;53.39
9893;BME280;4985;49.092;8.542;2023-02-28T07:42:46;100177.00;;;11.81;53.39
9893;BME280;4985;49.092;8.542;2023-02-28T07:45:13;100179.66;;;11.81;53.40
9893;BME280;4985;49.092;8.542;2023-02-28T07:47:41;100180.63;;;11.80;53.42
9893;BME280;4985;49.092;8.542;2023-02-28T07:50:12;100183.94;;;11.82;53.39
9893;BME280;4985;49.092;8.542;2023-02-28T07:52:39;100177.00;;;11.81;53.38
9893;BME280;4985;49.092;8.542;2023-02-28T07:55:08;100174.38;;;11.81;53.38
9893;BME280;4985;49.092;8.542;2023-02-28T07:57:35;100180.63;;;11.80;53.38
9893;BME280;4985;49.092;8.542;2023-02-28T08:00:03;100172.72;;;11.80;53.40
9893;BME280;4985;49.092;8.542;2023-02-28T08:02:30;100178.00;;;11.80;53.39
9893;BME280;4985;49.092;8.542;2023-02-28T08:04:56;100185.91;;;11.80;53.39
9893;BME280;4985;49.092;8.542;2023-02-28T08:07:24;100185.91;;;11.80;53.42
9893;BME280;4985;49.092;8.542;2023-02-28T08:09:51;100173.13;;;11.75;53.42
9893;BME280;4985;49.092;8.542;2023-02-28T08:12:17;100184.22;;;11.79;53.43
9893;BME280;4985;49.092;8.542;2023-02-28T08:14:44;100185.09;;;11.79;53.40
9893;BME280;4985;49.092;8.542;2023-02-28T08:17:11;100189.50;;;11.79;53.40
9893;BME280;4985;49.092;8.542;2023-02-28T08:19:37;100182.44;;;11.79;53.39
9893;BME280;4985;49.092;8.542;2023-02-28T08:22:04;100189.50;;;11.79;53.40
9893;BME280;4985;49.092;8.542;2023-02-28T08:24:33;100192.13;;;11.79;53.41
9893;BME280;4985;49.092;8.542;2023-02-28T08:26:59;100196.47;;;11.80;53.39
9893;BME280;4985;49.092;8.542;2023-02-28T08:29:26;100190.34;;;11.79;53.40
9893;BME280;4985;49.092;8.542;2023-02-28T08:31:52;100194.78;;;11.79;53.42
9893;BME280;4985;49.092;8.542;2023-02-28T08:34:19;100186.84;;;11.79;53.44
9893;BME280;4985;49.092;8.542;2023-02-28T08:36:45;100190.44;;;11.78;53.43
9893;BME280;4985;49.092;8.542;2023-02-28T08:39:12;100192.13;;;11.79;53.44
9893;BME280;4985;49.092;8.542;2023-02-28T08:41:42;100193.94;;;11.78;53.44
9893;BME280;4985;49.092;8.542;2023-02-28T08:44:09;100201.00;;;11.78;53.44
9893;BME280;4985;49.092;8.542;2023-02-28T08:46:35;100194.91;;;11.77;53.45
9893;BME280;4985;49.092;8.542;2023-02-28T08:49:02;100202.69;;;11.79;53.44
9893;BME280;4985;49.092;8.542;2023-02-28T08:51:29;100199.09;;;11.80;53.40
9893;BME280;4985;49.092;8.542;2023-02-28T08:53:58;100202.41;;;11.82;53.34
9893;BME280;4985;49.092;8.542;2023-02-28T08:56:26;100205.72;;;11.84;53.30
9893;BME280;4985;49.092;8.542;2023-02-28T08:58:55;100193.81;;;11.80;53.25
9893;BME280;4985;49.092;8.542;2023-02-28T09:01:24;100199.47;;;11.85;53.24
9893;BME280;4985;49.092;8.542;2023-02-28T09:03:52;100191.19;;;11.80;53.25
9893;BME280;4985;49.092;8.542;2023-02-28T09:06:21;100204.75;;;11.85;53.24
9893;BME280;4985;49.092;8.542;2023-02-28T09:08:47;100199.63;;;11.83;53.26
9893;BME280;4985;49.092;8.542;2023-02-28T09:11:15;100202.56;;;11.80;53.34
9893;BME280;4985;49.092;8.542;2023-02-28T09:13:42;100200.06;;;11.79;53.38
9893;BME280;4985;49.092;8.542;2023-02-28T09:16:12;100202.69;;;11.79;53.42
9893;BME280;4985;49.092;8.542;2023-02-28T09:18:39;100203.63;;;11.78;53.42
9893;BME280;4985;49.092;8.542;2023-02-28T09:21:09;100203.63;;;11.78;53.42
9893;BME280;4985;49.092;8.542;2023-02-28T09:23:38;100204.62;;;11.77;53.45
9893;BME280;4985;49.092;8.542;2023-02-28T09:26:05;100200.31;;;11.76;53.45
9893;BME280;4985;49.092;8.542;2023-02-28T09:28:32;100201.16;;;11.76;53.46
9893;BME280;4985;49.092;8.542;2023-02-28T09:30:59;100194.22;;;11.75;53.46
9893;BME280;4985;49.092;8.542;2023-02-28T09:33:27;100201.16;;;11.76;53.46
9893;BME280;4985;49.092;8.542;2023-02-28T09:35:59;100193.25;;;11.76;53.46
9893;BME280;4985;49.092;8.542;2023-02-28T09:38:26;100197.53;;;11.77;53.46
9893;BME280;4985;49.092;8.542;2023-02-28T09:40:56;100201.16;;;11.76;53.46
9893;BME280;4985;49.092;8.542;2023-02-28T09:43:26;100198.50;;;11.76;53.47
9893;BME280;4985;49.092;8.542;2023-02-28T09:45:58;100203.78;;;11.76;53.46
9893;BME280;4985;49.092;8.542;2023-02-28T09:48:32;100201.16;;;11.76;53.46
9893;BME280;4985;49.092;8.542;2023-02-28T09:51:04;100201.97;;;11.77;53.46
9893;BME280;4985;49.092;8.542;2023-02-28T09:53:33;100197.53;;;11.77;53.46
9893;BME280;4985;49.092;8.542;2023-02-28T09:56:03;100192.25;;;11.77;53.46
9893;BME280;4985;49.092;8.542;2023-02-28T09:58:36;100198.50;;;11.76;53.48
9893;BME280;4985;49.092;8.542;2023-02-28T10:01:07;100183.59;;;11.67;53.47
9893;BME280;4985;49.092;8.542;2023-02-28T10:03:39;100197.53;;;11.77;53.46
9893;BME280;4985;49.092;8.542;2023-02-28T10:06:10;100203.63;;;11.78;53.44
9893;BME280;4985;49.092;8.542;2023-02-28T10:08:42;100191.44;;;11.77;53.45
9893;BME280;4985;49.092;8.542;2023-02-28T10:11:15;100196.69;;;11.77;53.46
9893;BME280;4985;49.092;8.542;2023-02-28T10:13:50;100195.72;;;11.78;53.47
9893;BME280;4985;49.092;8.542;2023-02-28T10:16:22;100205.31;;;11.79;53.46
9893;BME280;4985;49.092;8.542;2023-02-28T10:18:54;100208.91;;;11.78;53.47
9893;BME280;4985;49.092;8.542;2023-02-28T10:21:27;100209.87;;;11.77;53.49
9893;BME280;4985;49.092;8.542;2023-02-28T10:24:02;100200.16;;;11.77;53.51
9893;BME280;4985;49.092;8.542;2023-02-28T10:26:30;100206.28;;;11.78;53.53
9893;BME280;4985;49.092;8.542;2023-02-28T10:28:57;100201.97;;;11.77;53.52
9893;BME280;4985;49.092;8.542;2023-02-28T10:31:24;100208.22;;;11.76;53.56
9893;BME280;4985;49.092;8.542;2023-02-28T10:33:52;100212.69;;;11.75;53.61
9893;BME280;4985;49.092;8.542;2023-02-28T10:36:20;100204.78;;;11.75;53.63
9893;BME280;4985;49.092;8.542;2023-02-28T10:38:48;100202.97;;;11.76;53.64
9893;BME280;4985;49.092;8.542;2023-02-28T10:41:16;100200.31;;;11.76;53.65
9893;BME280;4985;49.092;8.542;2023-02-28T10:43:52;100208.09;;;11.77;53.64
9893;BME280;4985;49.092;8.542;2023-02-28T10:46:19;100211.53;;;11.78;53.62
9893;BME280;4985;49.092;8.542;2023-02-28T10:49:02;100211.69;;;11.76;53.68
9893;BME280;4985;49.092;8.542;2023-02-28T10:51:36;100207.25;;;11.77;53.70
9893;BME280;4985;49.092;8.542;2023-02-28T10:54:03;100202.97;;;11.76;53.70
9893;BME280;4985;49.092;8.542;2023-02-28T10:56:30;100211.69;;;11.76;53.71
9893;BME280;4985;49.092;8.542;2023-02-28T10:58:59;100207.25;;;11.77;53.71
9893;BME280;4985;49.092;8.542;2023-02-28T11:01:36;100204.62;;;11.77;53.71
9893;BME280;4985;49.092;8.542;2023-02-28T11:04:16;100207.13;;;11.78;53.69
9893;BME280;4985;49.092;8.542;2023-02-28T11:06:43;100206.28;;;11.78;53.68
9893;BME280;4985;49.092;8.542;2023-02-28T11:09:18;100207.00;;;11.80;53.68
9893;BME280;4985;49.092;8.542;2023-02-28T11:11:47;100204.22;;;11.81;53.63
9893;BME280;4985;49.092;8.542;2023-02-28T11:14:20;100204.22;;;11.81;53.64
9893;BME280;4985;49.092;8.542;2023-02-28T11:16:48;100203.37;;;11.81;53.64
9893;BME280;4985;49.092;8.542;2023-02-28T11:19:20;100200.75;;;11.81;53.64
9893;BME280;4985;49.092;8.542;2023-02-28T11:21:53;100195.47;;;11.81;53.64
9893;BME280;4985;49.092;8.542;2023-02-28T11:24:23;100195.31;;;11.82;53.64
9893;BME280;4985;49.092;8.542;2023-02-28T11:26:50;100190.88;;;11.83;53.62
9893;BME280;4985;49.092;8.542;2023-02-28T11:29:20;100187.56;;;11.81;53.61
9893;BME280;4985;49.092;8.542;2023-02-28T11:32:05;100195.31;;;11.82;53.63
9893;BME280;4985;49.092;8.542;2023-02-28T11:34:36;100190.06;;;11.82;53.60
9893;BME280;4985;49.092;8.542;2023-02-28T11:37:04;100183.94;;;11.82;53.63
9893;BME280;4985;49.092;8.542;2023-02-28T11:39:32;100186.44;;;11.83;53.61
9893;BME280;4985;49.092;8.542;2023-02-28T11:42:07;100192.53;;;11.84;53.62
9893;BME280;4985;49.092;8.542;2023-02-28T11:44:47;100186.28;;;11.85;53.62
9893;BME280;4985;49.092;8.542;2023-02-28T11:47:26;100183.78;;;11.83;53.62
9893;BME280;4985;49.092;8.542;2023-02-28T11:50:07;100186.28;;;11.85;53.62
9893;BME280;4985;49.092;8.542;2023-02-28T11:52:44;100187.25;;;11.84;53.63
9893;BME280;4985;49.092;8.542;2023-02-28T11:55:16;100181.97;;;11.84;53.64
9893;BME280;4985;49.092;8.542;2023-02-28T11:57:56;100189.75;;;11.85;53.64
9893;BME280;4985;49.092;8.542;2023-02-28T12:00:40;100190.56;;;11.86;53.62
9893;BME280;4985;49.092;8.542;2023-02-28T12:03:26;100194.03;;;11.86;53.62
9893;BME280;4985;49.092;8.542;2023-02-28T12:06:04;100180.69;;;11.88;53.60
9893;BME280;4985;49.092;8.542;2023-02-28T12:08:51;100179.03;;;11.87;53.59
9893;BME280;4985;49.092;8.542;2023-02-28T12:11:29;100180.69;;;11.88;53.59
9893;BME280;4985;49.092;8.542;2023-02-28T12:14:16;100183.22;;;11.89;53.59
9893;BME280;4985;49.092;8.542;2023-02-28T12:16:55;100185.00;;;11.89;53.61
9893;BME280;4985;49.092;8.542;2023-02-28T12:19:31;100183.22;;;11.89;53.61
9893;BME280;4985;49.092;8.542;2023-02-28T12:22:19;100182.22;;;11.90;53.60
9893;BME280;4985;49.092;8.542;2023-02-28T12:28:04;100175.13;;;11.91;53.64
9893;BME280;4985;49.092;8.542;2023-02-28T12:30:32;100175.28;;;11.89;53.66
9893;BME280;4985;49.092;8.542;2023-02-28T12:33:03;100170.84;;;11.90;53.65
9893;BME280;4985;49.092;8.542;2023-02-28T12:35:34;100161.94;;;11.91;53.66
9893;BME280;4985;49.092;8.542;2023-02-28T12:38:05;100168.22;;;11.90;53.67
9893;BME280;4985;49.092;8.542;2023-02-28T12:40:43;100167.22;;;11.91;53.66
9893;BME280;4985;49.092;8.542;2023-02-28T12:43:13;100161.94;;;11.91;53.67
9893;BME280;4985;49.092;8.542;2023-02-28T12:45:45;100158.31;;;11.92;53.67
9893;BME280;4985;49.092;8.542;2023-02-28T12:48:17;100157.34;;;11.93;53.66
9893;BME280;4985;49.092;8.542;2023-02-28T12:50:46;100149.28;;;11.94;53.63
9893;BME280;4985;49.092;8.542;2023-02-28T12:53:19;100150.09;;;11.95;53.59
9893;BME280;4985;49.092;8.542;2023-02-28T12:55:56;100149.13;;;11.96;53.58
9893;BME280;4985;49.092;8.542;2023-02-28T12:58:30;100144.66;;;11.97;53.56
9893;BME280;4985;49.092;8.542;2023-02-28T13:01:31;100140.22;;;11.97;53.54
9893;BME280;4985;49.092;8.542;2023-02-28T13:04:36;100133.13;;;11.98;53.52
9893;BME280;4985;49.092;8.542;2023-02-28T13:07:29;100150.78;;;11.97;53.55
9893;BME280;4985;49.092;8.542;2023-02-28T13:10:02;100140.22;;;11.97;53.56
9893;BME280;4985;49.092;8.542;2023-02-28T13:12:32;100129.66;;;11.97;53.57
9893;BME280;4985;49.092;8.542;2023-02-28T13:15:05;100134.94;;;11.97;53.58
9893;BME280;4985;49.092;8.542;2023-02-28T13:17:38;100134.94;;;11.97;53.60
9893;BME280;4985;49.092;8.542;2023-02-28T13:20:15;100122.22;;;11.92;53.60
9893;BME280;4985;49.092;8.542;2023-02-28T13:22:44;100133.97;;;11.98;53.60
9893;BME280;4985;49.092;8.542;2023-02-28T13:34:40;100136.31;;;12.01;53.52
9893;BME280;4985;49.092;8.542;2023-02-28T13:37:35;100137.00;;;12.03;53.51
9893;BME280;4985;49.092;8.542;2023-02-28T13:40:31;100136.00;;;12.04;53.47
9893;BME280;4985;49.092;8.542;2023-02-28T13:43:02;100137.66;;;12.05;53.45
9893;BME280;4985;49.092;8.542;2023-02-28T13:45:29;100125.13;;;12.07;53.39